createdAt,value
2024-05-09T00:01:11.789Z,55.80
2024-05-09T00:04:18.557Z,55.98
2024-05-09T00:07:20.713Z,56.21
2024-05-09T00:10:50.656Z,56.40
2024-05-09T00:13:52.659Z,56.70
2024-05-09T00:17:17.941Z,56.60
2024-05-09T00:20:35.294Z,56.93
2024-05-09T00:23:43.186Z,56.84
2024-05-09T00:27:25.359Z,56.94
2024-05-09T00:30:47.349Z,57.19
2024-05-09T00:33:59.712Z,57.33
2024-05-09T00:37:01.749Z,57.41
2024-05-09T00:40:34.697Z,57.65
2024-05-09T00:43:41.020Z,57.81
2024-05-09T00:46:45.428Z,57.94
2024-05-09T00:49:48.538Z,57.92
2024-05-09T00:53:31.091Z,58.16
2024-05-09T00:56:41.510Z,58.14
2024-05-09T00:59:43.880Z,58.12
2024-05-09T01:03:06.213Z,58.13
2024-05-09T01:06:08.497Z,58.31
2024-05-09T01:09:15.926Z,58.33
2024-05-09T01:12:20.670Z,58.48
2024-05-09T01:15:28.590Z,58.74
2024-05-09T01:19:05.029Z,58.76
2024-05-09T01:22:09.808Z,58.82
2024-05-09T01:25:24.066Z,59.06
2024-05-09T01:28:34.915Z,59.06
2024-05-09T01:31:59.832Z,59.33
2024-05-09T01:35:28.652Z,59.57
2024-05-09T01:39:31.000Z,59.65
2024-05-09T01:42:53.011Z,59.71
2024-05-09T01:46:37.388Z,59.71
2024-05-09T01:49:40.636Z,60.22
2024-05-09T01:53:15.767Z,60.41
2024-05-09T01:56:17.582Z,60.72
2024-05-09T01:59:40.195Z,60.82
2024-05-09T02:02:45.768Z,60.87
2024-05-09T02:05:50.425Z,61.33
2024-05-09T02:08:52.239Z,61.61
2024-05-09T02:11:54.265Z,61.84
2024-05-09T02:15:19.678Z,62.01
2024-05-09T02:18:24.381Z,61.92
2024-05-09T02:21:26.259Z,62.18
2024-05-09T02:24:51.095Z,62.30
2024-05-09T02:27:55.600Z,62.43
2024-05-09T02:31:00.831Z,62.79
2024-05-09T02:34:08.085Z,62.83
2024-05-09T02:37:12.970Z,63.12
2024-05-09T02:40:25.219Z,63.60
2024-05-09T02:43:30.896Z,63.71
2024-05-09T02:46:35.224Z,63.85
2024-05-09T02:50:05.960Z,64.08
2024-05-09T02:53:09.503Z,64.40
2024-05-09T02:56:12.086Z,64.80
2024-05-09T02:59:13.978Z,64.93
2024-05-09T03:02:18.118Z,64.81
2024-05-09T03:05:22.299Z,64.83
2024-05-09T03:08:24.316Z,65.34
2024-05-09T03:11:26.664Z,65.48
2024-05-09T03:14:31.183Z,65.33
2024-05-09T03:17:33.121Z,65.33
2024-05-09T03:20:36.348Z,65.24
2024-05-09T03:23:42.391Z,65.15
2024-05-09T03:26:44.826Z,65.15
2024-05-09T03:29:49.937Z,65.34
2024-05-09T03:32:51.999Z,65.43
2024-05-09T03:35:54.016Z,65.59
2024-05-09T03:38:58.420Z,65.55
2024-05-09T03:42:00.427Z,65.74
2024-05-09T03:45:02.096Z,65.72
2024-05-09T03:48:04.374Z,65.82
2024-05-09T03:51:39.701Z,65.86
2024-05-09T03:54:47.466Z,65.94
2024-05-09T03:57:49.145Z,66.03
2024-05-09T04:01:11.726Z,65.87
2024-05-09T04:04:13.683Z,65.97
2024-05-09T04:07:15.758Z,65.97
2024-05-09T04:10:27.383Z,65.85
2024-05-09T04:13:33.072Z,65.91
2024-05-09T04:16:34.888Z,65.73
2024-05-09T04:19:59.512Z,65.56
2024-05-09T04:23:04.389Z,65.50
2024-05-09T04:26:08.779Z,65.23
2024-05-09T04:29:16.469Z,64.84
2024-05-09T04:32:43.710Z,64.63
2024-05-09T04:36:03.715Z,64.39
2024-05-09T04:39:36.031Z,64.34
2024-05-09T04:42:40.839Z,64.01
2024-05-09T04:45:45.611Z,63.92
2024-05-09T04:48:48.717Z,63.45
2024-05-09T04:51:58.138Z,63.22
2024-05-09T04:55:03.096Z,63.25
2024-05-09T04:58:07.095Z,62.77
2024-05-09T05:01:11.712Z,62.85
2024-05-09T05:04:13.383Z,62.42
2024-05-09T05:07:15.152Z,62.31
2024-05-09T05:10:25.094Z,62.21
2024-05-09T05:13:32.397Z,61.77
2024-05-09T05:16:34.227Z,61.37
2024-05-09T05:19:39.135Z,61.12
2024-05-09T05:22:43.074Z,61.07
2024-05-09T05:25:47.874Z,60.54
2024-05-09T05:29:10.164Z,60.24
2024-05-09T05:32:12.720Z,60.11
2024-05-09T05:35:35.184Z,60.10
2024-05-09T05:38:59.481Z,59.82
2024-05-09T05:42:01.308Z,59.31
2024-05-09T05:45:26.017Z,58.98
2024-05-09T05:48:33.281Z,58.77
2024-05-09T05:51:38.550Z,58.52
2024-05-09T05:54:40.549Z,58.43
2024-05-09T05:57:43.597Z,58.04
2024-05-09T06:00:45.589Z,57.82
2024-05-09T06:03:47.475Z,57.48
2024-05-09T06:06:49.445Z,57.30
2024-05-09T06:09:51.303Z,57.33
2024-05-09T06:12:53.229Z,57.10
2024-05-09T06:15:55.029Z,56.81
2024-05-09T06:18:59.908Z,56.92
2024-05-09T06:22:02.963Z,56.85
2024-05-09T06:25:08.209Z,56.90
2024-05-09T06:28:12.691Z,56.56
2024-05-09T06:31:14.656Z,56.64
2024-05-09T06:34:18.801Z,56.09
2024-05-09T06:37:51.403Z,56.13
2024-05-09T06:41:05.818Z,56.27
2024-05-09T06:44:20.024Z,55.73
2024-05-09T06:47:21.923Z,55.54
2024-05-09T06:50:35.244Z,55.56
2024-05-09T06:53:40.608Z,55.37
2024-05-09T06:56:44.847Z,55.50
2024-05-09T06:59:59.648Z,55.22
2024-05-09T07:03:19.667Z,54.70
2024-05-09T07:06:21.880Z,54.18
2024-05-09T07:09:35.864Z,53.76
2024-05-09T07:12:37.596Z,53.92
2024-05-09T07:15:40.858Z,53.67
2024-05-09T07:18:42.990Z,53.55
2024-05-09T07:21:47.741Z,52.96
2024-05-09T07:24:49.500Z,52.90
2024-05-09T07:27:53.921Z,52.92
2024-05-09T07:30:55.649Z,52.81
2024-05-09T07:33:58.782Z,52.24
2024-05-09T07:37:01.923Z,51.93
2024-05-09T07:40:07.430Z,52.12
2024-05-09T07:43:14.101Z,51.64
2024-05-09T07:47:14.207Z,50.74
2024-05-09T07:51:32.568Z,50.50
2024-05-09T07:53:36.653Z,50.51
2024-05-09T07:56:30.545Z,49.67
2024-05-09T07:59:53.052Z,48.90
2024-05-09T08:02:55.071Z,48.70
2024-05-09T08:06:01.672Z,48.37
2024-05-09T08:09:08.056Z,47.97
2024-05-09T08:12:19.371Z,47.48
2024-05-09T08:15:21.074Z,47.21
2024-05-09T08:18:25.546Z,46.99
2024-05-09T08:21:29.594Z,47.05
2024-05-09T08:24:31.635Z,46.42
2024-05-09T08:27:33.520Z,46.29
2024-05-09T08:30:37.419Z,46.16
2024-05-09T08:33:51.395Z,46.05
2024-05-09T08:36:54.094Z,44.92
2024-05-09T08:39:56.135Z,44.07
2024-05-09T08:43:01.498Z,43.53
2024-05-09T08:46:06.138Z,43.62
2024-05-09T08:49:08.426Z,42.76
2024-05-09T08:52:10.444Z,42.30
2024-05-09T08:55:12.916Z,41.89
2024-05-09T08:58:19.701Z,41.46
2024-05-09T09:01:22.859Z,41.32
2024-05-09T09:04:25.217Z,40.76
2024-05-09T09:07:30.040Z,39.53
2024-05-09T09:10:35.221Z,39.32
2024-05-09T09:13:42.476Z,38.94
2024-05-09T09:16:45.957Z,38.15
2024-05-09T09:19:48.078Z,36.84
2024-05-09T09:22:50.033Z,36.61
2024-05-09T09:26:03.546Z,37.37
2024-05-09T09:29:05.259Z,37.48
2024-05-09T09:32:11.181Z,37.03
2024-05-09T09:35:12.978Z,36.96
2024-05-09T09:38:39.887Z,36.74
2024-05-09T09:41:46.775Z,36.70
2024-05-09T09:44:58.215Z,36.52
2024-05-09T09:48:08.039Z,36.17
2024-05-09T09:51:10.667Z,35.52
2024-05-09T09:54:13.618Z,34.61
2024-05-09T09:57:18.196Z,34.49
2024-05-09T10:00:27.158Z,34.46
2024-05-09T10:03:34.520Z,34.01
2024-05-09T10:06:42.274Z,34.15
2024-05-09T10:10:06.876Z,33.86
2024-05-09T10:13:09.025Z,33.60
2024-05-09T10:16:11.591Z,33.27
2024-05-09T10:19:46.496Z,33.47
2024-05-09T10:22:52.013Z,33.11
2024-05-09T10:25:58.462Z,32.95
2024-05-09T10:29:03.270Z,32.51
2024-05-09T10:32:05.516Z,32.02
2024-05-09T10:35:08.962Z,31.89
2024-05-09T10:38:12.569Z,31.38
2024-05-09T10:41:16.739Z,31.21
2024-05-09T10:44:18.679Z,31.78
2024-05-09T10:47:21.245Z,31.38
2024-05-09T10:50:28.580Z,31.61
2024-05-09T10:53:56.646Z,31.43
2024-05-09T10:56:58.513Z,30.99
2024-05-09T11:00:00.176Z,30.85
2024-05-09T11:03:02.032Z,30.51
2024-05-09T11:06:04.268Z,30.59
2024-05-09T11:09:06.862Z,29.95
2024-05-09T11:12:28.917Z,29.90
2024-05-09T11:15:43.005Z,30.02
2024-05-09T11:18:54.606Z,29.60
2024-05-09T11:21:58.268Z,29.46
2024-05-09T11:25:04.462Z,29.69
2024-05-09T11:28:07.760Z,29.48
2024-05-09T11:31:10.483Z,29.20
2024-05-09T11:34:12.765Z,29.08
2024-05-09T11:37:14.812Z,29.01
2024-05-09T11:40:24.345Z,28.73
2024-05-09T11:43:27.751Z,28.10
2024-05-09T11:46:29.685Z,27.86
2024-05-09T11:49:31.585Z,27.66
2024-05-09T11:52:33.446Z,27.66
2024-05-09T11:55:38.118Z,27.86
2024-05-09T11:58:41.404Z,27.59
2024-05-09T12:01:43.320Z,27.43
2024-05-09T12:04:46.819Z,27.42
2024-05-09T12:07:48.804Z,26.91
2024-05-09T12:10:50.692Z,26.99
2024-05-09T12:13:54.859Z,26.77
2024-05-09T12:17:01.016Z,26.99
2024-05-09T12:20:04.304Z,26.91
2024-05-09T12:23:12.175Z,26.68
2024-05-09T12:26:15.645Z,27.09
2024-05-09T12:29:18.021Z,26.65
2024-05-09T12:32:20.004Z,26.38
2024-05-09T12:35:21.774Z,26.09
2024-05-09T12:38:23.767Z,26.00
2024-05-09T12:41:25.871Z,26.35
2024-05-09T12:44:27.463Z,25.53
2024-05-09T12:47:29.729Z,25.20
2024-05-09T12:50:33.602Z,25.10
2024-05-09T12:53:36.521Z,25.59
2024-05-09T12:56:38.196Z,25.82
2024-05-09T12:59:42.272Z,25.62
2024-05-09T13:02:44.001Z,25.73
2024-05-09T13:05:46.384Z,25.60
2024-05-09T13:08:48.245Z,24.74
2024-05-09T13:11:50.053Z,24.31
2024-05-09T13:15:01.088Z,24.22
2024-05-09T13:18:06.725Z,24.12
2024-05-09T13:21:08.661Z,24.18
2024-05-09T13:24:10.413Z,24.19
2024-05-09T13:27:14.954Z,23.76
2024-05-09T13:30:28.816Z,23.79
2024-05-09T13:33:55.539Z,23.78
2024-05-09T13:36:57.467Z,24.11
2024-05-09T13:40:00.604Z,24.21
2024-05-09T13:43:05.396Z,24.35
2024-05-09T13:46:07.576Z,24.36
2024-05-09T13:49:12.384Z,24.53
2024-05-09T13:52:14.648Z,24.76
2024-05-09T13:55:16.467Z,23.95
2024-05-09T13:58:23.207Z,23.78
2024-05-09T14:01:28.657Z,23.79
2024-05-09T14:04:30.622Z,24.23
2024-05-09T14:07:32.635Z,24.75
2024-05-09T14:10:35.476Z,24.58
2024-05-09T14:13:39.572Z,23.89
2024-05-09T14:16:44.661Z,24.23
2024-05-09T14:20:13.999Z,24.22
2024-05-09T14:23:19.852Z,23.93
2024-05-09T14:26:21.680Z,23.70
2024-05-09T14:29:23.633Z,24.04
2024-05-09T14:32:25.525Z,24.02
2024-05-09T14:35:30.102Z,24.13
2024-05-09T14:38:32.002Z,24.54
2024-05-09T14:41:33.789Z,24.25
2024-05-09T14:44:35.476Z,24.05
2024-05-09T14:47:37.380Z,24.09
2024-05-09T14:50:40.750Z,24.05
2024-05-09T14:53:43.127Z,24.24
2024-05-09T14:56:44.902Z,24.07
2024-05-09T14:59:46.510Z,24.11
2024-05-09T15:02:51.041Z,24.29
2024-05-09T15:05:53.327Z,24.71
2024-05-09T15:08:57.352Z,24.58
2024-05-09T15:12:01.768Z,24.45
2024-05-09T15:15:04.018Z,24.53
2024-05-09T15:18:06.413Z,24.42
2024-05-09T15:21:08.545Z,24.23
2024-05-09T15:24:10.302Z,24.36
2024-05-09T15:27:12.519Z,24.40
2024-05-09T15:33:17.440Z,24.14
2024-05-09T15:36:20.341Z,24.09
2024-05-09T15:39:30.409Z,24.40
2024-05-09T15:42:32.426Z,24.60
